Time;durP1;ratioP1;P1;durP2;ratioP2;P2;SDS_P1;SDS_P2;PMS_P1;PMS_P2;Temp;Humidity;BMP_temperature;BMP_pressure;BME280_temperature;BME280_humidity;BME280_pressure;Samples;Min_cycle;Max_cycle;Signal;HPM_P1;HPM_P2
2022/09/24 00:00:17;;;;;;;3.13;2.33;;;;;;;18.27;44.50;93213.91;5044629;28;20095;-88
2022/09/24 00:02:42;;;;;;;3.63;2.85;;;;;;;18.29;44.12;93216.13;5063561;28;20039;-88
2022/09/24 00:05:08;;;;;;;2.92;2.63;;;;;;;18.26;44.08;93204.22;5050303;28;20500;-87
2022/09/24 00:07:33;;;;;;;3.45;2.60;;;;;;;18.28;43.72;93211.91;5064495;28;20124;-88
2022/09/24 00:09:58;;;;;;;3.45;3.05;;;;;;;18.27;44.27;93207.69;5047550;28;20538;-88
2022/09/24 00:12:24;;;;;;;3.33;2.63;;;;;;;18.28;44.17;93215.38;5072085;28;20041;-88
2022/09/24 00:14:50;;;;;;;5.00;3.13;;;;;;;18.24;44.10;93209.47;5046488;28;20032;-88
2022/09/24 00:17:15;;;;;;;3.85;2.67;;;;;;;18.24;44.18;93203.25;5050658;28;20044;-87
2022/09/24 00:19:40;;;;;;;3.30;2.80;;;;;;;18.25;44.17;93210.94;5067599;28;20032;-87
2022/09/24 00:22:06;;;;;;;2.78;2.50;;;;;;;18.25;43.91;93208.22;5041857;28;20032;-88
2022/09/24 00:27:15;;;;;;;3.22;2.60;;;;;;;18.27;43.87;93207.69;5060190;27;20093;-88
2022/09/24 00:29:41;;;;;;;3.75;2.92;;;;;;;18.26;44.15;93200.75;5034559;28;20036;-88
2022/09/24 00:32:06;;;;;;;3.38;2.58;;;;;;;18.24;44.10;93187.56;5081585;28;20044;-88
2022/09/24 00:34:32;;;;;;;3.38;2.50;;;;;;;18.25;44.24;93196.53;5067359;28;20033;-88
2022/09/24 00:36:58;;;;;;;3.97;3.13;;;;;;;18.25;44.52;93197.25;5064696;28;20032;-88
2022/09/24 00:39:23;;;;;;;3.42;2.70;;;;;;;18.24;44.16;93198.53;5067813;28;20067;-88
2022/09/24 00:41:48;;;;;;;2.33;2.13;;;;;;;18.24;44.57;93187.56;5051173;28;20059;-88
2022/09/24 00:44:39;;;;;;;3.40;2.70;;;;;;;18.26;43.92;93181.59;5050375;28;20464;-87
2022/09/24 00:47:06;;;;;;;2.85;2.38;;;;;;;18.24;44.06;93176.63;5067342;28;20032;-88
2022/09/24 00:49:31;;;;;;;3.42;2.60;;;;;;;18.24;44.19;93182.09;5070963;28;20291;-88
2022/09/24 00:51:56;;;;;;;3.10;2.35;;;;;;;18.24;44.16;93170.41;5070726;28;20028;-88
2022/09/24 00:54:23;;;;;;;3.65;2.65;;;;;;;18.26;44.34;93176.13;5086964;28;20044;-88
2022/09/24 00:56:49;;;;;;;2.70;2.40;;;;;;;18.24;44.12;93175.88;5088220;28;20063;-88
2022/09/24 00:59:16;;;;;;;3.08;2.20;;;;;;;18.23;44.30;93171.66;5086913;28;20040;-88
2022/09/24 01:01:42;;;;;;;6.32;2.70;;;;;;;18.23;44.37;93166.19;5070908;28;20032;-87
2022/09/24 01:04:07;;;;;;;3.10;2.58;;;;;;;18.23;44.73;93174.41;5070250;28;20036;-88
2022/09/24 01:06:33;;;;;;;2.85;2.47;;;;;;;18.25;44.56;93164.44;5041827;28;20037;-87
2022/09/24 01:08:58;;;;;;;3.45;2.80;;;;;;;18.22;44.36;93168.19;5075811;28;20053;-87
2022/09/24 01:11:41;;;;;;;2.70;2.10;;;;;;;18.24;44.50;93162.94;5069245;28;20028;-87
2022/09/24 01:14:13;;;;;;;3.20;2.45;;;;;;;18.22;44.14;93165.47;5069181;28;20086;-88
2022/09/24 01:17:06;;;;;;;3.72;2.63;;;;;;;18.23;44.37;93175.16;5067101;28;20375;-87
2022/09/24 01:19:47;;;;;;;3.30;2.60;;;;;;;18.22;44.32;93167.44;5067918;28;20044;-87
2022/09/24 01:22:31;;;;;;;3.45;2.47;;;;;;;18.24;44.43;93164.94;5053145;28;20377;-88
2022/09/24 01:24:56;;;;;;;2.97;2.15;;;;;;;18.24;44.37;93162.22;5066937;28;20036;-88
2022/09/24 01:27:27;;;;;;;3.40;2.60;;;;;;;18.20;44.73;93157.03;5066006;28;20045;-88
2022/09/24 01:30:06;;;;;;;3.03;2.40;;;;;;;18.23;44.50;93158.72;5040862;28;20049;-88
2022/09/24 01:32:36;;;;;;;2.50;2.15;;;;;;;18.22;44.50;93151.03;5015916;28;20506;-88
2022/09/24 01:35:02;;;;;;;2.95;2.30;;;;;;;18.22;44.76;93142.81;5050421;28;20114;-88
2022/09/24 01:37:29;;;;;;;3.53;2.47;;;;;;;18.23;44.84;93136.09;5068548;28;20059;-87
2022/09/24 01:39:54;;;;;;;2.30;1.98;;;;;;;18.23;44.07;93138.84;5070459;28;20128;-87
2022/09/24 01:42:20;;;;;;;2.72;2.25;;;;;;;18.22;44.38;93146.31;5069197;28;20044;-88
2022/09/24 01:44:46;;;;;;;2.53;2.20;;;;;;;18.23;44.63;93138.84;5054569;28;20036;-87
2022/09/24 01:47:17;;;;;;;4.60;2.80;;;;;;;18.23;44.61;93139.56;5054093;28;20506;-87
2022/09/24 01:49:43;;;;;;;2.47;2.20;;;;;;;18.22;44.47;93138.09;5083767;28;20048;-87
2022/09/24 01:52:09;;;;;;;2.70;2.17;;;;;;;18.20;44.59;93142.59;5064208;28;20199;-87
2022/09/24 01:54:37;;;;;;;2.03;1.70;;;;;;;18.20;44.64;93137.88;5033626;28;20515;-87
2022/09/24 01:57:10;;;;;;;2.50;2.10;;;;;;;18.20;44.17;93134.38;5064595;28;20040;-88
2022/09/24 01:59:46;;;;;;;3.45;2.20;;;;;;;18.20;44.73;93132.41;5047397;28;20037;-87
2022/09/24 02:02:21;;;;;;;3.17;2.40;;;;;;;18.25;44.76;93139.06;5030726;28;20822;-88
2022/09/24 02:04:50;;;;;;;2.65;2.08;;;;;;;18.22;44.83;93135.34;5064700;28;20580;-88
2022/09/24 02:07:20;;;;;;;1.85;1.73;;;;;;;18.21;44.32;93135.88;5047310;28;20138;-87
2022/09/24 02:09:46;;;;;;;3.28;1.95;;;;;;;18.21;44.62;93135.88;5064344;28;20066;-87
2022/09/24 02:12:22;;;;;;;2.03;1.83;;;;;;;18.22;44.47;93134.63;5063187;28;20040;-88
2022/09/24 02:14:51;;;;;;;2.08;1.77;;;;;;;18.20;44.70;93134.38;5047869;28;20129;-87
2022/09/24 02:17:16;;;;;;;2.50;1.92;;;;;;;18.19;44.64;93130.19;5067721;28;20036;-87
2022/09/24 02:19:42;;;;;;;2.83;2.15;;;;;;;18.20;44.79;93132.41;5049788;28;20147;-88
2022/09/24 02:22:08;;;;;;;2.72;1.92;;;;;;;18.20;44.44;93131.66;5065558;28;20102;-88
2022/09/24 02:24:49;;;;;;;2.25;1.80;;;;;;;18.20;44.90;93124.19;5048395;28;20044;-87
2022/09/24 02:27:15;;;;;;;2.60;2.15;;;;;;;18.19;44.70;93114.50;5076959;28;20040;-87
2022/09/24 02:29:40;;;;;;;2.38;2.03;;;;;;;18.22;44.79;93118.94;5069282;28;20563;-87
2022/09/24 02:32:06;;;;;;;2.20;2.00;;;;;;;18.20;44.45;93121.44;5051856;28;20367;-87
2022/09/24 02:34:37;;;;;;;2.78;2.17;;;;;;;18.20;44.72;93117.97;5052203;28;20043;-88
2022/09/24 02:37:05;;;;;;;3.65;2.20;;;;;;;18.18;44.42;93113.03;5052287;28;20036;-88
2022/09/24 02:39:31;;;;;;;2.28;2.03;;;;;;;18.20;44.76;93107.78;5061334;28;20576;-88
2022/09/24 02:41:57;;;;;;;2.60;1.80;;;;;;;18.20;44.93;93107.78;5032259;28;20056;-88
2022/09/24 02:44:23;;;;;;;2.50;1.95;;;;;;;18.19;44.73;93102.84;5084712;28;20126;-88
2022/09/24 02:46:49;;;;;;;3.35;2.15;;;;;;;18.19;44.58;93111.06;5069021;28;20368;-88
2022/09/24 02:49:14;;;;;;;1.80;1.70;;;;;;;18.19;44.65;93105.59;5051037;28;20052;-87
2022/09/24 02:51:40;;;;;;;2.65;1.77;;;;;;;18.19;44.64;93100.81;5068910;28;20047;-87
2022/09/24 02:54:06;;;;;;;2.60;1.88;;;;;;;18.19;44.71;93100.81;5084900;28;20568;-88
2022/09/24 02:56:31;;;;;;;1.92;1.55;;;;;;;18.18;44.79;93102.09;5068707;28;20028;-88
2022/09/24 02:58:57;;;;;;;2.97;1.73;;;;;;;18.19;44.65;93097.38;5072543;28;20047;-87
2022/09/24 03:01:23;;;;;;;2.38;1.80;;;;;;;18.19;44.71;93106.28;5047342;28;20125;-87
2022/09/24 03:03:49;;;;;;;1.95;1.70;;;;;;;18.20;44.87;93090.63;5065089;28;20055;-87
2022/09/24 03:06:14;;;;;;;2.97;1.80;;;;;;;18.18;44.53;93095.91;5047778;28;20024;-87
2022/09/24 03:08:41;;;;;;;2.28;1.83;;;;;;;18.17;45.06;93095.16;5048819;28;20043;-87
2022/09/24 03:11:07;;;;;;;2.75;2.20;;;;;;;18.16;44.92;93101.88;5048258;28;20068;-87
2022/09/24 03:13:32;;;;;;;1.50;1.40;;;;;;;18.17;45.13;93091.69;5060104;28;20097;-87
2022/09/24 03:15:58;;;;;;;2.78;1.85;;;;;;;18.15;44.74;93090.19;5085078;28;20044;-87
2022/09/24 03:18:23;;;;;;;2.75;1.70;;;;;;;18.17;45.14;93086.94;5043303;28;20048;-88
2022/09/24 03:20:56;;;;;;;2.30;1.90;;;;;;;18.17;44.94;93086.94;5062313;28;20041;-87
2022/09/24 03:23:21;;;;;;;2.03;1.77;;;;;;;18.16;44.61;93085.47;5087695;28;20036;-88
2022/09/24 03:25:46;;;;;;;2.33;1.52;;;;;;;18.15;44.72;93082.00;5073014;28;20036;-87
2022/09/24 03:28:12;;;;;;;1.77;1.52;;;;;;;18.18;44.95;93082.22;5056009;28;20028;-87
2022/09/24 03:33:21;;;;;;;1.60;1.50;;;;;;;18.15;45.26;93081.25;5064329;28;20094;-87
2022/09/24 03:35:47;;;;;;;1.35;1.23;;;;;;;18.15;44.99;93070.31;5064685;28;20024;-88
2022/09/24 03:38:12;;;;;;;1.73;1.50;;;;;;;18.15;45.13;93067.56;5065778;28;20037;-87
2022/09/24 03:40:38;;;;;;;2.80;1.88;;;;;;;18.14;44.56;93061.34;5051930;28;20036;-88
2022/09/24 03:43:03;;;;;;;1.98;1.75;;;;;;;18.14;44.55;93055.88;5067298;28;20392;-88
2022/09/24 03:45:29;;;;;;;1.45;1.35;;;;;;;18.15;45.14;93056.63;5064673;28;20094;-87
2022/09/24 03:47:54;;;;;;;2.38;1.88;;;;;;;18.14;44.99;93047.69;5069654;28;20033;-88
2022/09/24 03:50:19;;;;;;;3.50;1.60;;;;;;;18.15;45.00;93053.91;5071506;28;20336;-87
2022/09/24 03:52:45;;;;;;;2.08;1.63;;;;;;;18.14;44.82;93057.88;5048246;28;20082;-87
2022/09/24 03:55:10;;;;;;;1.80;1.60;;;;;;;18.18;44.69;93061.06;5047130;28;20500;-87
2022/09/24 03:57:36;;;;;;;1.60;1.50;;;;;;;18.17;45.02;93059.59;5048184;28;20052;-87
2022/09/24 04:00:01;;;;;;;3.65;1.95;;;;;;;18.14;45.09;93060.63;5064565;28;20032;-88
2022/09/24 04:02:26;;;;;;;1.95;1.50;;;;;;;18.15;44.96;93064.84;5051057;28;20036;-87
2022/09/24 04:04:52;;;;;;;2.10;1.55;;;;;;;18.14;45.27;93055.88;5052151;28;20044;-88
2022/09/24 04:07:18;;;;;;;1.50;1.40;;;;;;;18.15;45.06;93053.91;5051258;28;20465;-87
2022/09/24 04:09:43;;;;;;;2.35;1.40;;;;;;;18.17;44.91;93050.63;5068366;28;20037;-88
2022/09/24 04:12:09;;;;;;;1.67;1.45;;;;;;;18.13;45.29;93046.19;5050528;28;20039;-88
2022/09/24 04:14:34;;;;;;;1.80;1.40;;;;;;;18.15;44.70;93048.41;5083616;28;20037;-88
2022/09/24 04:16:59;;;;;;;1.67;1.50;;;;;;;18.14;45.22;93047.69;5036566;28;20033;-87
2022/09/24 04:19:25;;;;;;;2.00;1.50;;;;;;;18.14;45.21;93039.47;5052749;28;20399;-88
2022/09/24 04:21:51;;;;;;;2.47;1.40;;;;;;;18.15;44.68;93037.47;5045803;28;20043;-87
2022/09/24 04:24:17;;;;;;;1.88;1.55;;;;;;;18.15;45.02;93043.69;5085173;28;20032;-88
2022/09/24 04:26:42;;;;;;;1.55;1.45;;;;;;;18.14;45.09;93044.22;5071073;28;20036;-88
2022/09/24 04:29:08;;;;;;;1.80;1.40;;;;;;;18.14;45.32;93049.69;5070713;28;20109;-87
2022/09/24 04:31:33;;;;;;;1.80;1.48;;;;;;;18.14;45.04;93049.69;5054289;28;20514;-87
2022/09/24 04:33:59;;;;;;;1.75;1.63;;;;;;;18.13;44.80;93048.19;5048556;28;20040;-88
2022/09/24 04:36:24;;;;;;;1.60;1.42;;;;;;;18.13;45.42;93046.19;5056227;28;20356;-87
2022/09/24 04:38:50;;;;;;;2.35;1.65;;;;;;;18.14;44.88;93046.94;5078940;28;20482;-87
2022/09/24 04:41:15;;;;;;;2.22;1.70;;;;;;;18.14;45.32;93044.22;5034410;28;20032;-87
2022/09/24 04:43:41;;;;;;;2.15;1.38;;;;;;;18.14;44.69;93050.41;5056354;28;20028;-87
2022/09/24 04:46:08;;;;;;;1.98;1.42;;;;;;;18.14;44.97;93047.69;5049240;28;20029;-88
2022/09/24 04:48:35;;;;;;;1.67;1.40;;;;;;;18.15;45.33;93051.16;5062577;28;20051;-87
2022/09/24 04:51:02;;;;;;;1.60;1.50;;;;;;;18.14;44.60;93047.69;5035179;28;20039;-87
2022/09/24 04:53:27;;;;;;;1.77;1.52;;;;;;;18.14;45.35;93041.47;5050346;28;20407;-88
2022/09/24 04:55:53;;;;;;;1.98;1.50;;;;;;;18.14;44.75;93055.16;5067677;28;20488;-87
2022/09/24 04:58:18;;;;;;;1.40;1.30;;;;;;;18.13;45.37;93050.94;5066104;28;20037;-88
2022/09/24 05:00:43;;;;;;;1.25;1.13;;;;;;;18.14;44.89;93055.88;5056693;28;20113;-87
2022/09/24 05:03:09;;;;;;;1.40;1.30;;;;;;;18.13;45.17;93051.66;5036013;28;20041;-87
2022/09/24 05:05:35;;;;;;;1.70;1.40;;;;;;;18.13;45.15;93059.88;5059921;28;20037;-87
2022/09/24 05:08:01;;;;;;;1.77;1.40;;;;;;;18.13;44.80;93046.19;5067642;28;20033;-87
2022/09/24 05:10:26;;;;;;;1.65;1.35;;;;;;;18.16;45.05;93049.91;5086470;28;20043;-87
2022/09/24 05:12:52;;;;;;;1.83;1.60;;;;;;;18.14;44.83;93057.88;5045183;28;20036;-88
2022/09/24 05:15:20;;;;;;;1.90;1.60;;;;;;;18.13;45.01;93048.94;5040699;28;20039;-88
2022/09/24 05:17:45;;;;;;;1.98;1.35;;;;;;;18.13;44.97;93050.94;5061289;28;20491;-88
2022/09/24 05:20:10;;;;;;;1.45;1.30;;;;;;;18.15;45.24;93059.38;5050008;28;20044;-87
2022/09/24 05:22:41;;;;;;;1.98;1.70;;;;;;;18.13;45.06;93051.66;5050954;28;20036;-88
2022/09/24 05:25:07;;;;;;;1.58;1.20;;;;;;;18.14;45.04;93050.41;5062751;28;20039;-87
2022/09/24 05:27:32;;;;;;;1.35;1.25;;;;;;;18.17;44.92;93053.38;5051163;28;20434;-87
2022/09/24 05:29:59;;;;;;;1.50;1.40;;;;;;;18.15;45.27;93048.41;5079859;28;20044;-87
2022/09/24 05:32:24;;;;;;;1.30;1.20;;;;;;;18.13;45.34;93051.66;5049788;28;20036;-87
2022/09/24 05:34:50;;;;;;;1.85;1.30;;;;;;;18.13;45.28;93051.66;5050372;28;20113;-87
2022/09/24 05:37:17;;;;;;;1.58;1.30;;;;;;;18.11;45.08;93051.44;5049162;28;20515;-87
2022/09/24 05:39:42;;;;;;;1.42;1.30;;;;;;;18.13;45.17;93051.66;5047491;28;20052;-88
2022/09/24 05:42:13;;;;;;;1.98;1.40;;;;;;;18.12;45.35;93057.66;5076372;28;20028;-87
2022/09/24 05:44:39;;;;;;;1.67;1.40;;;;;;;18.13;45.35;93040.72;5070663;28;20545;-87
2022/09/24 05:47:04;;;;;;;2.13;1.65;;;;;;;18.11;45.24;93048.72;5034121;28;20032;-88
2022/09/24 05:49:30;;;;;;;1.55;1.33;;;;;;;18.12;45.28;93044.72;5049234;28;20157;-88
2022/09/24 05:51:56;;;;;;;1.98;1.35;;;;;;;18.12;45.21;93047.47;5050390;28;20033;-88
2022/09/24 05:54:21;;;;;;;2.25;1.50;;;;;;;18.15;45.58;93045.69;5049594;28;20041;-87
2022/09/24 05:56:47;;;;;;;1.75;1.40;;;;;;;18.15;45.26;93042.94;5049972;28;20032;-88
2022/09/24 05:59:12;;;;;;;1.85;1.40;;;;;;;18.11;45.04;93035.03;5065471;28;20483;-88
2022/09/24 06:01:38;;;;;;;1.98;1.48;;;;;;;18.13;45.26;93040.72;5054121;28;20047;-87
2022/09/24 06:04:03;;;;;;;1.58;1.40;;;;;;;18.12;45.29;93033.78;5049023;28;20036;-88
2022/09/24 06:06:28;;;;;;;2.20;1.30;;;;;;;18.11;45.34;93032.31;5038112;28;20047;-87
2022/09/24 06:08:54;;;;;;;1.60;1.30;;;;;;;18.11;45.53;93034.28;5072724;28;20395;-88
2022/09/24 06:11:22;;;;;;;1.50;1.25;;;;;;;18.11;45.49;93026.81;5040226;28;20106;-87
2022/09/24 06:13:49;;;;;;;1.73;1.40;;;;;;;18.13;45.42;93029.06;5049845;28;20516;-87
2022/09/24 06:16:15;;;;;;;2.63;2.00;;;;;;;18.13;45.28;93034.53;5069808;28;20070;-88
2022/09/24 06:18:41;;;;;;;1.50;1.40;;;;;;;18.13;45.41;93037.25;5070001;28;20085;-88
2022/09/24 06:21:09;;;;;;;7.28;2.72;;;;;;;18.14;45.25;93039.47;5069007;28;20037;-88
2022/09/24 06:23:34;;;;;;;18.23;5.88;;;;;;;18.13;45.50;93046.19;5051131;28;20089;-88
2022/09/24 06:26:00;;;;;;;36.20;10.02;;;;;;;18.13;45.56;93043.47;5084966;28;20040;-88
2022/09/24 06:28:25;;;;;;;33.40;10.95;;;;;;;18.14;45.67;93038.72;5068598;28;20376;-88
2022/09/24 06:30:51;;;;;;;33.28;8.60;;;;;;;18.14;45.30;93044.94;5069211;28;20059;-88
2022/09/24 06:33:16;;;;;;;18.00;5.35;;;;;;;18.15;45.31;93046.44;5052165;28;20036;-88
2022/09/24 06:35:42;;;;;;;16.98;5.20;;;;;;;18.15;45.19;93040.97;5037690;28;20125;-87
2022/09/24 06:38:10;;;;;;;15.38;5.70;;;;;;;18.13;45.41;93043.47;5031203;28;20032;-88
2022/09/24 06:40:35;;;;;;;11.55;3.85;;;;;;;18.15;45.14;93040.22;5029781;28;20461;-88
2022/09/24 06:43:01;;;;;;;9.50;4.05;;;;;;;18.17;45.35;93040.44;5049462;28;20044;-88
2022/09/24 06:45:27;;;;;;;12.35;3.75;;;;;;;18.20;45.35;93039.38;5066121;28;20039;-88
2022/09/24 06:47:56;;;;;;;11.93;4.28;;;;;;;18.20;45.54;93050.31;5081133;28;20029;-88
2022/09/24 06:50:22;;;;;;;12.57;3.63;;;;;;;18.22;45.53;93039.59;5063857;28;20032;-88
2022/09/24 06:52:47;;;;;;;9.60;3.65;;;;;;;18.23;45.71;93045.81;5050524;28;20592;-88
2022/09/24 06:55:13;;;;;;;7.45;3.03;;;;;;;18.24;45.40;93050.03;5066283;28;20051;-88
2022/09/24 06:57:39;;;;;;;27.17;12.85;;;;;;;18.30;45.84;93034.28;5055932;28;20041;-89
2022/09/24 07:00:05;;;;;;;13.25;4.00;;;;;;;18.28;45.35;93048.47;5074401;28;20048;-88
2022/09/24 07:02:30;;;;;;;11.40;3.58;;;;;;;18.24;45.57;93042.56;5049174;28;20104;-88
2022/09/24 07:04:56;;;;;;;12.00;4.28;;;;;;;18.27;45.15;93033.31;5059214;28;20056;-87
2022/09/24 07:07:33;;;;;;;9.25;4.20;;;;;;;18.27;45.80;93036.06;5032468;28;20403;-85
2022/09/24 07:10:00;;;;;;;16.08;5.22;;;;;;;18.31;45.40;93036.50;5042844;28;20047;-91
2022/09/24 07:12:27;;;;;;;10.23;4.30;;;;;;;18.34;45.79;93035.47;5056324;28;20622;-87
2022/09/24 07:14:53;;;;;;;6.90;4.10;;;;;;;18.38;45.48;93038.66;5076582;28;20760;-89
2022/09/24 07:17:18;;;;;;;10.80;4.53;;;;;;;18.37;45.55;93048.13;5082231;28;20108;-87
2022/09/24 07:19:44;;;;;;;12.50;4.93;;;;;;;18.40;45.60;93049.78;5050411;28;20044;-90
2022/09/24 07:22:09;;;;;;;12.57;6.68;;;;;;;18.43;45.95;93043.28;5038270;28;20391;-88
2022/09/24 07:24:34;;;;;;;7.78;3.92;;;;;;;18.43;45.57;93056.22;5056385;28;20045;-89
2022/09/24 07:27:03;;;;;;;11.05;4.78;;;;;;;18.43;45.67;93048.75;5063609;28;20036;-88
2022/09/24 07:29:28;;;;;;;15.15;8.65;;;;;;;18.44;45.28;93050.25;5064818;28;20036;-88
2022/09/24 07:31:54;;;;;;;15.95;6.88;;;;;;;18.46;45.63;93044.25;5085829;28;20038;-88
2022/09/24 07:34:19;;;;;;;15.27;7.20;;;;;;;18.46;45.66;93052.44;5067617;28;20032;-87
2022/09/24 07:36:44;;;;;;;12.63;6.68;;;;;;;18.47;45.24;93053.94;5053525;28;20044;-88
2022/09/24 07:39:10;;;;;;;13.13;7.38;;;;;;;18.49;45.31;93052.16;5053703;28;20439;-87
2022/09/24 07:41:36;;;;;;;14.32;8.07;;;;;;;18.47;45.43;93057.41;5061139;28;20075;-89
2022/09/24 07:44:01;;;;;;;15.63;8.18;;;;;;;18.46;45.54;93057.94;5051052;28;20132;-89
2022/09/24 07:46:27;;;;;;;10.90;6.95;;;;;;;18.45;45.69;93064.66;5046573;28;20041;-89
2022/09/24 07:48:54;;;;;;;9.85;6.40;;;;;;;18.45;45.83;93070.88;5044423;28;20482;-89
2022/09/24 07:51:20;;;;;;;15.45;7.32;;;;;;;18.45;45.40;93065.41;5030377;28;20055;-89
2022/09/24 07:53:45;;;;;;;13.45;6.25;;;;;;;18.42;45.92;93074.66;5021379;28;20450;-89
2022/09/24 07:56:11;;;;;;;16.50;6.30;;;;;;;18.46;45.34;93063.41;5028695;28;20412;-88
2022/09/24 07:58:36;;;;;;;17.75;7.00;;;;;;;18.47;45.35;93065.63;5056931;28;20378;-89
2022/09/24 08:01:02;;;;;;;9.82;6.47;;;;;;;18.45;45.74;93076.34;5028078;28;20038;-88
2022/09/24 08:03:27;;;;;;;12.73;5.80;;;;;;;18.46;45.55;93077.81;5026830;28;20041;-89
2022/09/24 08:05:57;;;;;;;9.57;5.85;;;;;;;18.48;45.81;93074.56;5067453;28;20110;-90
2022/09/24 08:08:22;;;;;;;12.20;5.80;;;;;;;18.47;45.49;93078.56;5033168;28;20048;-88
2022/09/24 08:10:48;;;;;;;12.45;6.50;;;;;;;18.45;45.67;93081.09;5033732;28;20573;-89
2022/09/24 08:13:13;;;;;;;10.52;5.53;;;;;;;18.46;45.83;93071.63;5048854;28;20086;-90
2022/09/24 08:15:40;;;;;;;13.60;5.20;;;;;;;18.45;45.93;93076.34;5062742;28;20055;-88
2022/09/24 08:18:05;;;;;;;11.57;5.65;;;;;;;18.45;45.50;93064.66;5034048;28;20039;-90
2022/09/24 08:20:33;;;;;;;10.52;5.85;;;;;;;18.46;45.83;93066.13;5038655;28;20052;-89
2022/09/24 08:23:02;;;;;;;8.85;5.40;;;;;;;18.48;45.37;93066.38;5066983;28;20486;-88
2022/09/24 08:25:28;;;;;;;10.48;5.43;;;;;;;18.48;45.39;93064.38;5053497;28;20093;-89
2022/09/24 08:27:53;;;;;;;11.70;6.10;;;;;;;18.49;45.80;93070.56;5086353;28;20047;-87
2022/09/24 08:30:20;;;;;;;11.70;5.38;;;;;;;18.48;45.75;93063.63;5070549;28;20082;-89
2022/09/24 08:32:47;;;;;;;12.35;5.38;;;;;;;18.51;45.53;93068.06;5087281;28;20546;-88
2022/09/24 08:35:14;;;;;;;10.48;5.38;;;;;;;18.50;45.61;93072.06;5047211;28;20542;-91
2022/09/24 08:37:40;;;;;;;12.07;4.97;;;;;;;18.49;45.28;93067.84;5044529;28;20053;-89
2022/09/24 08:40:06;;;;;;;11.23;5.03;;;;;;;18.52;45.31;93066.06;5056250;28;20040;-89
2022/09/24 08:42:43;;;;;;;8.10;4.60;;;;;;;18.49;46.12;93063.09;5052138;28;20044;-89
2022/09/24 08:47:55;;;;;;;9.23;5.18;;;;;;;18.50;46.16;93078.28;5067986;28;20036;-89
2022/09/24 08:50:28;;;;;;;17.70;5.20;;;;;;;18.54;46.10;93088.19;5056413;28;20830;-88
2022/09/24 08:53:13;;;;;;;16.67;5.43;;;;;;;18.53;45.63;93084.72;5040999;28;20123;-89
2022/09/24 08:55:42;;;;;;;9.50;4.65;;;;;;;18.55;45.97;93086.94;5073652;28;20040;-89
2022/09/24 08:58:18;;;;;;;6.60;4.30;;;;;;;18.52;46.03;93090.69;5065714;28;20527;-89
2022/09/24 09:00:50;;;;;;;7.78;4.78;;;;;;;18.51;46.04;93079.00;5069219;28;20487;-89
2022/09/24 09:03:35;;;;;;;14.65;6.20;;;;;;;18.51;46.13;93081.75;5078683;28;20395;-88
2022/09/24 09:06:04;;;;;;;16.20;6.05;;;;;;;18.48;46.27;93071.84;5074021;28;20073;-89
2022/09/24 09:08:55;;;;;;;15.00;6.20;;;;;;;18.47;46.67;93062.16;5050858;28;20399;-88
2022/09/24 09:11:23;;;;;;;17.13;5.78;;;;;;;18.46;46.86;93064.16;5056422;28;20048;-88
2022/09/24 09:13:51;;;;;;;8.45;6.22;;;;;;;18.44;46.67;93069.41;5060243;28;20040;-89
2022/09/24 09:16:25;;;;;;;11.35;5.78;;;;;;;18.40;47.02;93077.16;5077548;28;20178;-90
2022/09/24 09:18:51;;;;;;;15.63;5.95;;;;;;;18.41;46.93;93075.16;5072789;28;20867;-88
2022/09/24 09:21:24;;;;;;;12.18;5.55;;;;;;;18.42;46.64;93065.69;5069382;28;20036;-89
2022/09/24 09:23:50;;;;;;;8.32;4.82;;;;;;;18.41;46.66;93073.16;5071381;28;20048;-88
2022/09/24 09:26:17;;;;;;;10.93;6.50;;;;;;;18.42;46.99;93071.91;5050463;28;20028;-88
2022/09/24 09:28:43;;;;;;;12.63;5.70;;;;;;;18.40;47.09;93079.91;5047621;28;20045;-91
2022/09/24 09:31:19;;;;;;;13.48;4.95;;;;;;;18.36;47.20;93079.47;5086494;27;20040;-89
2022/09/24 09:34:01;;;;;;;16.50;5.57;;;;;;;18.36;46.92;93078.72;5038741;28;20037;-90
2022/09/24 09:36:48;;;;;;;15.15;5.03;;;;;;;18.34;46.95;93073.78;5084258;28;20028;-88
2022/09/24 09:39:48;;;;;;;129.90;115.03;;;;;;;18.32;46.90;93070.06;5085966;28;20044;-89
2022/09/24 09:42:30;;;;;;;228.43;78.17;;;;;;;18.31;47.15;93074.81;5081526;28;20076;-89
2022/09/24 09:45:01;;;;;;;112.80;49.97;;;;;;;18.28;47.18;93075.84;5053165;28;20269;-89
2022/09/24 09:47:42;;;;;;;69.15;26.67;;;;;;;18.28;47.05;93062.16;5048539;28;20121;-88
2022/09/24 09:50:28;;;;;;;53.42;16.75;;;;;;;18.29;46.91;93058.16;5060931;28;20411;-88
2022/09/24 09:52:54;;;;;;;32.47;12.40;;;;;;;18.27;47.12;93051.72;5046551;28;20047;-88
2022/09/24 09:55:28;;;;;;;32.53;9.88;;;;;;;18.29;47.31;93049.97;5052251;28;20142;-89
2022/09/24 09:58:01;;;;;;;23.60;9.13;;;;;;;18.26;47.56;93053.00;5055534;28;20041;-89
2022/09/24 10:00:33;;;;;;;24.85;10.90;;;;;;;18.25;47.46;93057.72;5080625;28;20068;-89
2022/09/24 10:02:59;;;;;;;42.97;14.70;;;;;;;18.27;47.48;93054.47;5066991;28;20108;-90
2022/09/24 10:05:27;;;;;;;50.45;14.45;;;;;;;18.28;47.48;93053.22;5050305;28;20040;-89
2022/09/24 10:07:59;;;;;;;50.28;15.60;;;;;;;18.26;47.63;93048.25;5031000;28;20040;-90
2022/09/24 10:10:26;;;;;;;66.78;23.08;;;;;;;18.25;47.96;93044.03;5048782;28;20044;-89
2022/09/24 10:13:04;;;;;;;46.65;13.85;;;;;;;18.22;47.71;93045.06;5049721;28;20092;-89
2022/09/24 10:15:30;;;;;;;31.73;11.05;;;;;;;18.25;47.72;93049.50;5084595;28;20048;-89
2022/09/24 10:17:55;;;;;;;25.60;8.60;;;;;;;18.24;47.78;93042.56;5061207;28;20032;-89
2022/09/24 10:20:27;;;;;;;49.67;32.30;;;;;;;18.21;47.54;93046.34;5061925;28;20409;-89
2022/09/24 10:22:57;;;;;;;41.58;27.38;;;;;;;18.24;47.53;93044.56;5064805;28;20029;-89
2022/09/24 10:25:25;;;;;;;35.83;23.63;;;;;;;18.25;47.62;93046.78;5073180;27;20040;-89
2022/09/24 10:27:53;;;;;;;23.00;13.90;;;;;;;18.24;47.60;93045.28;5062408;28;20063;-88
2022/09/24 10:30:32;;;;;;;15.95;10.10;;;;;;;18.23;47.84;93043.81;5057219;28;20040;-89
2022/09/24 10:32:59;;;;;;;14.13;8.60;;;;;;;18.22;47.96;93041.59;5067302;28;20046;-89
2022/09/24 10:35:30;;;;;;;21.05;8.90;;;;;;;18.22;47.59;93050.53;5052342;28;20487;-88
2022/09/24 10:37:57;;;;;;;19.15;8.00;;;;;;;18.24;47.95;93048.03;5040701;28;20036;-89
2022/09/24 10:40:29;;;;;;;19.38;8.52;;;;;;;18.24;48.28;93053.50;5067184;28;20161;-90
2022/09/24 10:42:57;;;;;;;14.02;7.85;;;;;;;18.24;48.33;93058.97;5045621;28;20041;-87
2022/09/24 10:45:30;;;;;;;15.82;8.40;;;;;;;18.25;48.54;93054.25;5066818;28;20518;-89
2022/09/24 10:48:02;;;;;;;18.10;7.90;;;;;;;18.25;49.09;93057.72;5070156;28;20036;-90
2022/09/24 10:50:34;;;;;;;14.60;7.47;;;;;;;18.25;49.03;93059.72;5048620;28;20150;-88
2022/09/24 10:53:02;;;;;;;8.40;6.78;;;;;;;18.26;49.08;93053.72;5045054;28;20565;-89
2022/09/24 10:55:46;;;;;;;10.98;7.40;;;;;;;18.25;48.78;93059.72;5031414;28;20032;-89
2022/09/24 10:58:36;;;;;;;10.30;7.05;;;;;;;18.21;49.18;93049.06;5073634;28;20037;-88
2022/09/24 11:01:25;;;;;;;13.90;11.45;;;;;;;18.26;49.27;93048.25;5057279;28;20033;-88
2022/09/24 11:03:56;;;;;;;19.48;11.75;;;;;;;18.30;49.02;93039.75;5087281;28;20040;-89
2022/09/24 11:06:47;;;;;;;9.90;8.90;;;;;;;18.28;49.49;93045.00;5078169;28;20044;-89
2022/09/24 11:09:39;;;;;;;11.23;9.05;;;;;;;18.29;49.60;93049.97;5047819;28;20400;-89
2022/09/24 11:12:10;;;;;;;13.60;8.82;;;;;;;18.30;49.87;93045.22;5063314;28;20044;-88
2022/09/24 11:15:07;;;;;;;13.52;8.02;;;;;;;18.30;49.83;93048.69;5058516;28;20744;-88
2022/09/24 11:17:55;;;;;;;10.88;7.68;;;;;;;18.34;49.89;93042.94;5069943;28;20052;-88
2022/09/24 11:20:33;;;;;;;10.63;8.20;;;;;;;18.32;49.59;93042.72;5034275;28;20075;-88
2022/09/24 11:23:08;;;;;;;13.27;8.23;;;;;;;18.34;49.17;93045.66;5033258;28;20036;-88
2022/09/24 11:25:46;;;;;;;10.00;8.63;;;;;;;18.32;49.08;93037.97;5071924;28;20495;-88
2022/09/24 11:28:39;;;;;;;12.25;7.75;;;;;;;18.34;50.07;93042.94;5054688;28;20083;-88
2022/09/24 11:31:11;;;;;;;8.60;7.13;;;;;;;18.35;49.46;93047.16;5064577;28;20048;-88
2022/09/24 11:33:45;;;;;;;9.60;7.00;;;;;;;18.33;49.81;93050.41;5048234;28;20396;-89
2022/09/24 11:36:29;;;;;;;7.90;6.68;;;;;;;18.35;49.79;93047.16;5065280;28;20085;-88
2022/09/24 11:39:20;;;;;;;7.60;6.57;;;;;;;18.36;49.77;93043.16;5047387;28;20086;-88
2022/09/24 11:42:02;;;;;;;8.60;6.85;;;;;;;18.38;49.68;93041.38;5101618;28;20041;-88
2022/09/24 11:44:55;;;;;;;7.20;6.45;;;;;;;18.39;49.61;93048.34;5064697;28;20036;-88